Time;durP1;ratioP1;P1;durP2;ratioP2;P2;SDS_P1;SDS_P2;PMS_P1;PMS_P2;Temp;Humidity;BMP_temperature;BMP_pressure;BME280_temperature;BME280_humidity;BME280_pressure;Samples;Min_cycle;Max_cycle;Signal;HPM_P1;HPM_P2
2022/07/16 00:02:54;;;;;;;6.55;1.92;;;;;;;17.83;58.04;102162.94;5021986;28;20108;-59
2022/07/16 00:05:19;;;;;;;5.95;2.00;;;;;;;17.83;58.10;102155.13;5025772;28;20024;-57
2022/07/16 00:07:44;;;;;;;7.40;2.42;;;;;;;17.85;57.67;102153.47;5025781;28;20076;-55
2022/07/16 00:10:10;;;;;;;6.47;2.10;;;;;;;17.89;57.88;102155.25;5021786;28;20052;-58
2022/07/16 00:12:36;;;;;;;5.80;1.92;;;;;;;17.91;57.69;102153.56;5022133;28;20025;-60
2022/07/16 00:15:03;;;;;;;5.15;1.90;;;;;;;17.82;58.03;102156.00;5019625;28;20065;-57
2022/07/16 00:17:29;;;;;;;5.18;1.90;;;;;;;17.80;58.45;102153.38;5021187;28;20581;-59
2022/07/16 00:19:54;;;;;;;9.32;2.60;;;;;;;17.77;58.64;102153.28;5026099;28;20064;-60
2022/07/16 00:22:19;;;;;;;4.53;2.10;;;;;;;17.76;58.83;102156.75;5023694;28;20143;-59
2022/07/16 00:24:45;;;;;;;4.18;2.30;;;;;;;17.78;58.67;102156.78;5027597;28;20680;-57
2022/07/16 00:27:10;;;;;;;4.57;1.95;;;;;;;17.83;58.13;102157.72;5043936;28;20128;-60
2022/07/16 00:29:35;;;;;;;6.47;2.00;;;;;;;17.77;58.66;102162.81;5030332;28;20029;-59
2022/07/16 00:32:01;;;;;;;4.68;2.00;;;;;;;17.80;59.25;102155.97;5024767;28;20120;-54
2022/07/16 00:34:26;;;;;;;5.45;1.70;;;;;;;17.85;58.94;102154.34;5027206;28;20050;-58
2022/07/16 00:36:52;;;;;;;5.28;2.10;;;;;;;17.82;59.07;102150.78;5026600;28;20120;-52
2022/07/16 00:39:17;;;;;;;4.72;2.15;;;;;;;17.82;58.71;102150.78;5019658;28;20062;-60
2022/07/16 00:41:46;;;;;;;5.10;1.85;;;;;;;17.79;58.96;102146.41;5029521;28;20398;-59
2022/07/16 00:44:16;;;;;;;5.47;2.10;;;;;;;17.89;58.87;102150.03;5023478;28;20017;-59
2022/07/16 00:46:43;;;;;;;6.55;2.35;;;;;;;17.89;58.90;102152.66;5027072;28;20540;-55
2022/07/16 00:49:09;;;;;;;7.90;2.63;;;;;;;17.85;58.85;102153.47;5016871;28;20056;-59
2022/07/16 00:51:40;;;;;;;5.95;2.70;;;;;;;17.83;59.04;102152.53;5023981;28;20037;-61
2022/07/16 00:54:06;;;;;;;4.82;2.70;;;;;;;17.86;59.16;102157.81;5022543;28;20486;-59
2022/07/16 00:56:31;;;;;;;5.20;2.78;;;;;;;17.88;59.25;102153.50;5025137;28;20079;-60
2022/07/16 00:58:57;;;;;;;4.13;2.58;;;;;;;17.84;59.04;102154.31;5022471;28;20080;-60
2022/07/16 01:01:23;;;;;;;4.35;2.25;;;;;;;17.80;59.75;102148.16;5029518;28;20538;-60
2022/07/16 01:03:49;;;;;;;6.75;2.50;;;;;;;17.83;59.61;102147.31;5025399;28;20037;-59
2022/07/16 01:06:16;;;;;;;3.08;2.00;;;;;;;17.83;59.59;102147.31;5021263;28;20044;-54
2022/07/16 01:08:44;;;;;;;5.22;2.17;;;;;;;17.81;59.92;102149.91;5028089;28;20021;-60
2022/07/16 01:11:13;;;;;;;4.15;2.20;;;;;;;17.79;60.00;102143.81;5023060;28;20068;-53
2022/07/16 01:13:41;;;;;;;7.45;2.53;;;;;;;17.80;59.63;102139.47;5023059;28;20117;-60
2022/07/16 01:16:08;;;;;;;6.18;2.40;;;;;;;17.76;59.67;102142.88;5024735;28;20119;-56
2022/07/16 01:18:35;;;;;;;5.57;2.35;;;;;;;17.74;60.10;102141.97;5022972;28;20052;-59
2022/07/16 01:21:01;;;;;;;4.35;2.45;;;;;;;17.76;59.58;102140.25;5025456;28;20102;-60
2022/07/16 01:23:26;;;;;;;5.18;2.47;;;;;;;17.69;59.58;102139.25;5024634;28;20761;-60
2022/07/16 01:25:53;;;;;;;7.50;2.70;;;;;;;17.69;59.14;102137.50;5024599;28;20490;-60
2022/07/16 01:28:19;;;;;;;5.38;2.60;;;;;;;17.64;59.34;102139.13;5029579;28;20033;-60
2022/07/16 01:30:46;;;;;;;7.25;2.50;;;;;;;17.68;59.22;102142.69;5018448;28;20029;-57
2022/07/16 01:33:32;;;;;;;7.60;2.70;;;;;;;17.76;58.78;102148.06;5026973;28;20091;-59
2022/07/16 01:36:03;;;;;;;4.82;2.55;;;;;;;17.66;59.45;102150.47;5024951;28;20073;-60
2022/07/16 01:38:29;;;;;;;4.28;2.33;;;;;;;17.67;59.44;102146.16;5022465;28;20041;-60
2022/07/16 01:40:55;;;;;;;5.57;2.60;;;;;;;17.67;59.49;102147.03;5017653;28;20580;-53
2022/07/16 01:43:24;;;;;;;4.85;2.53;;;;;;;17.75;59.24;102142.00;5016600;28;20041;-60
2022/07/16 01:45:50;;;;;;;4.97;2.63;;;;;;;17.69;59.44;102134.03;5023582;28;20059;-60
2022/07/16 01:48:16;;;;;;;6.47;2.60;;;;;;;17.67;59.79;102139.22;5021373;28;20474;-60
2022/07/16 01:50:43;;;;;;;5.75;2.30;;;;;;;17.70;59.34;102146.19;5027986;28;20117;-54
2022/07/16 01:53:09;;;;;;;7.68;2.47;;;;;;;17.62;60.12;102143.44;5022086;28;20227;-59
2022/07/16 01:55:35;;;;;;;5.30;2.55;;;;;;;17.70;59.64;102146.19;5020539;28;20029;-57
2022/07/16 01:58:03;;;;;;;5.35;2.28;;;;;;;17.63;60.35;102144.31;5019443;28;20026;-57
2022/07/16 02:00:29;;;;;;;5.80;2.63;;;;;;;17.59;60.14;102139.91;5026712;28;20084;-60
2022/07/16 02:02:54;;;;;;;4.75;2.63;;;;;;;17.59;60.41;102139.91;5023835;28;20036;-48
2022/07/16 02:05:20;;;;;;;7.70;2.60;;;;;;;17.55;60.60;102140.72;5022119;28;20033;-60
2022/07/16 02:07:45;;;;;;;6.07;2.88;;;;;;;17.55;60.14;102136.38;5023670;28;20048;-60
2022/07/16 02:10:11;;;;;;;4.85;2.47;;;;;;;17.57;60.13;102137.28;5029604;28;20041;-59
2022/07/16 02:12:37;;;;;;;4.53;2.40;;;;;;;17.56;60.95;102132.94;5024131;28;20044;-59
2022/07/16 02:15:04;;;;;;;6.90;2.80;;;;;;;17.50;60.83;102140.59;5020397;28;20481;-47
2022/07/16 02:17:29;;;;;;;11.65;3.22;;;;;;;17.53;60.66;102135.44;5023154;28;20029;-60
2022/07/16 02:19:54;;;;;;;4.10;2.60;;;;;;;17.55;60.54;102125.97;5026095;28;20071;-51
2022/07/16 02:22:20;;;;;;;6.50;3.42;;;;;;;17.57;60.41;102136.41;5020501;28;20029;-60
2022/07/16 02:24:45;;;;;;;6.70;3.10;;;;;;;17.59;60.67;102127.75;5025384;28;20486;-60
2022/07/16 02:27:10;;;;;;;5.35;3.13;;;;;;;17.56;60.72;102132.06;5025072;28;20041;-58
2022/07/16 02:29:36;;;;;;;5.43;3.00;;;;;;;17.57;60.39;102126.88;5019217;28;20128;-60
2022/07/16 02:32:02;;;;;;;5.32;3.05;;;;;;;17.58;60.55;102128.63;5026565;28;20025;-54
2022/07/16 02:34:27;;;;;;;4.75;2.90;;;;;;;17.56;60.24;102130.31;5022795;28;20057;-58
2022/07/16 02:36:53;;;;;;;5.47;2.95;;;;;;;17.50;60.54;102127.59;5026417;28;20033;-59
2022/07/16 02:39:18;;;;;;;6.40;3.80;;;;;;;17.49;60.55;102130.19;5032741;28;20025;-47
2022/07/16 02:41:43;;;;;;;4.53;3.40;;;;;;;17.51;60.32;102133.69;5030095;28;20040;-58
2022/07/16 02:44:09;;;;;;;5.15;3.60;;;;;;;17.54;60.29;102124.22;5029439;28;20032;-60
2022/07/16 02:46:34;;;;;;;7.28;3.72;;;;;;;17.60;60.04;102128.69;5023832;28;20375;-60
2022/07/16 02:49:00;;;;;;;6.03;3.95;;;;;;;17.56;60.32;102121.66;5032381;28;20040;-60
2022/07/16 02:51:25;;;;;;;6.53;4.20;;;;;;;17.55;59.99;102127.69;5028022;28;20037;-60
2022/07/16 02:53:51;;;;;;;6.72;3.97;;;;;;;17.55;60.16;102118.19;5024249;28;20524;-58
2022/07/16 02:56:16;;;;;;;9.70;4.50;;;;;;;17.55;60.08;102122.50;5020758;28;20152;-59
2022/07/16 02:58:42;;;;;;;7.88;4.30;;;;;;;17.55;60.63;102125.97;5029117;28;20029;-59
2022/07/16 03:01:07;;;;;;;8.20;4.40;;;;;;;17.54;60.54;102126.81;5027496;28;20261;-58
2022/07/16 03:03:33;;;;;;;7.20;4.57;;;;;;;17.57;60.11;102123.41;5026516;28;20021;-59
2022/07/16 03:05:58;;;;;;;6.72;4.53;;;;;;;17.56;60.11;102116.44;5028531;28;20076;-54
2022/07/16 03:08:24;;;;;;;7.38;4.68;;;;;;;17.54;60.13;102124.22;5030393;28;20032;-61
2022/07/16 03:10:49;;;;;;;11.48;4.60;;;;;;;17.54;60.50;102119.03;5030608;28;20045;-60
2022/07/16 03:13:15;;;;;;;9.45;4.80;;;;;;;17.56;60.27;102127.72;5026184;28;20128;-54
2022/07/16 03:15:40;;;;;;;7.60;4.53;;;;;;;17.53;60.34;102129.38;5023075;28;20026;-59
2022/07/16 03:18:06;;;;;;;7.88;4.38;;;;;;;17.53;60.96;102129.38;5022113;28;20121;-60
2022/07/16 03:20:31;;;;;;;7.90;4.60;;;;;;;17.54;60.57;102134.63;5020006;28;20394;-61
2022/07/16 03:22:57;;;;;;;7.80;4.18;;;;;;;17.57;59.93;102133.81;5022051;28;20025;-57
2022/07/16 03:25:22;;;;;;;7.45;4.07;;;;;;;17.58;60.25;102141.63;5023985;28;20017;-60
2022/07/16 03:27:47;;;;;;;7.85;4.38;;;;;;;17.54;60.60;102134.63;5027333;28;20468;-52
2022/07/16 03:30:14;;;;;;;6.47;3.72;;;;;;;17.54;60.48;102138.97;5024529;28;20467;-58
2022/07/16 03:32:40;;;;;;;6.85;3.78;;;;;;;17.64;60.34;102144.34;5023925;28;20814;-60
2022/07/16 03:35:08;;;;;;;8.60;4.25;;;;;;;17.63;60.77;102152.13;5029636;28;20080;-47
2022/07/16 03:37:33;;;;;;;7.93;4.28;;;;;;;17.62;61.00;102156.44;5026697;28;20028;-59
2022/07/16 03:39:59;;;;;;;7.63;4.20;;;;;;;17.57;61.11;102152.88;5025836;28;20033;-61
2022/07/16 03:42:24;;;;;;;7.47;4.10;;;;;;;17.61;61.19;102157.31;5019772;28;20029;-59
2022/07/16 03:44:50;;;;;;;7.25;4.57;;;;;;;17.65;61.35;102155.63;5050476;28;20014;-61
2022/07/16 03:47:15;;;;;;;9.90;4.80;;;;;;;17.63;61.86;102154.72;5030045;28;20069;-61
2022/07/16 03:49:40;;;;;;;6.22;3.95;;;;;;;17.66;61.63;102158.28;5026866;28;20057;-59
2022/07/16 03:52:06;;;;;;;7.28;4.00;;;;;;;17.66;61.74;102168.69;5027036;28;20033;-59
2022/07/16 03:54:31;;;;;;;5.82;3.85;;;;;;;17.60;63.05;102165.97;5021051;28;20034;-59
2022/07/16 03:56:57;;;;;;;6.80;4.03;;;;;;;17.63;62.63;102166.00;5029694;28;20055;-59
2022/07/16 03:59:22;;;;;;;5.93;4.07;;;;;;;17.65;62.90;102173.84;5023484;28;20026;-60
2022/07/16 04:01:47;;;;;;;7.13;3.72;;;;;;;17.61;63.58;102172.03;5020116;28;20030;-60
2022/07/16 04:04:13;;;;;;;5.78;3.50;;;;;;;17.66;63.51;102176.50;5023494;28;20447;-61
2022/07/16 04:06:38;;;;;;;5.72;3.70;;;;;;;17.61;64.38;102177.25;5024611;28;20033;-61
2022/07/16 04:09:04;;;;;;;7.00;3.83;;;;;;;17.58;64.80;102177.16;5025186;28;20524;-55
2022/07/16 04:11:29;;;;;;;6.07;3.90;;;;;;;17.61;64.58;102185.03;5024002;28;20029;-45
2022/07/16 04:13:54;;;;;;;5.78;3.60;;;;;;;17.57;64.98;102181.50;5022297;28;20072;-56
2022/07/16 04:16:20;;;;;;;5.40;3.17;;;;;;;17.56;65.68;102177.13;5022669;28;20043;-55
2022/07/16 04:18:45;;;;;;;7.13;3.47;;;;;;;17.55;65.66;102178.00;5023134;28;20045;-56
2022/07/16 04:21:11;;;;;;;7.32;3.70;;;;;;;17.57;65.80;102184.09;5025195;28;20029;-53
2022/07/16 04:23:36;;;;;;;9.18;3.58;;;;;;;17.56;66.32;102187.53;5023744;28;20098;-60
2022/07/16 04:26:02;;;;;;;8.40;3.30;;;;;;;17.55;66.92;102185.78;5017167;28;20028;-59
2022/07/16 04:28:28;;;;;;;6.15;3.40;;;;;;;17.55;67.68;102191.00;5034709;28;20033;-60
2022/07/16 04:30:53;;;;;;;7.18;3.17;;;;;;;17.56;68.09;102189.28;5029504;28;20086;-56
2022/07/16 04:33:19;;;;;;;5.95;3.10;;;;;;;17.54;69.12;102190.97;5029618;28;20117;-60
2022/07/16 04:35:45;;;;;;;8.27;3.35;;;;;;;17.53;68.77;102195.25;5022005;28;20111;-58
2022/07/16 04:38:10;;;;;;;6.05;3.20;;;;;;;17.51;69.41;102191.75;5037395;28;20068;-57
2022/07/16 04:40:35;;;;;;;8.02;3.03;;;;;;;17.53;69.67;102189.19;5027076;28;20379;-61
2022/07/16 04:43:01;;;;;;;5.18;3.08;;;;;;;17.53;69.71;102202.19;5023277;28;20405;-61
2022/07/16 04:45:26;;;;;;;5.57;2.85;;;;;;;17.49;70.66;102203.88;5021469;28;20029;-60
2022/07/16 04:47:51;;;;;;;4.65;3.00;;;;;;;17.53;70.43;102203.06;5021833;28;20025;-59
2022/07/16 04:50:17;;;;;;;7.35;3.30;;;;;;;17.53;70.83;102203.06;5019071;28;20099;-57
2022/07/16 04:52:42;;;;;;;5.63;3.22;;;;;;;17.54;70.91;102209.19;5006209;28;20032;-59
2022/07/16 04:55:08;;;;;;;8.90;3.55;;;;;;;17.55;71.47;102205.72;5027478;28;20079;-59
2022/07/16 04:57:34;;;;;;;5.20;3.35;;;;;;;17.60;71.44;102210.19;5025013;28;20104;-59
2022/07/16 04:59:59;;;;;;;10.75;3.85;;;;;;;17.65;71.70;102216.34;5024261;28;20137;-54
2022/07/16 05:05:09;;;;;;;8.18;3.40;;;;;;;17.70;72.75;102219.03;5018260;28;20064;-53
2022/07/16 05:07:35;;;;;;;5.97;3.20;;;;;;;17.71;73.58;102220.78;5022950;28;20034;-60
2022/07/16 05:10:01;;;;;;;6.55;3.10;;;;;;;17.75;73.98;102213.97;5024484;28;20478;-60
2022/07/16 05:12:26;;;;;;;7.72;2.85;;;;;;;17.80;74.36;102221.00;5021144;28;20111;-55
2022/07/16 05:14:52;;;;;;;6.80;3.00;;;;;;;17.85;74.74;102228.91;5024623;28;20088;-61
2022/07/16 05:17:17;;;;;;;8.05;2.90;;;;;;;17.89;74.82;102220.31;5024832;28;20075;-61
2022/07/16 05:19:42;;;;;;;7.93;2.95;;;;;;;17.90;75.35;102225.56;5020813;28;20040;-57
2022/07/16 05:22:08;;;;;;;5.30;3.05;;;;;;;17.92;75.33;102229.06;5022413;28;20198;-57
2022/07/16 05:24:34;;;;;;;6.15;2.70;;;;;;;17.98;75.11;102224.81;5047621;28;20018;-54
2022/07/16 05:26:59;;;;;;;8.73;2.67;;;;;;;18.00;75.45;102230.94;5022215;28;20038;-59
2022/07/16 05:29:25;;;;;;;9.40;3.00;;;;;;;18.05;75.31;102237.09;5030379;28;20033;-60
2022/07/16 05:31:50;;;;;;;6.32;2.42;;;;;;;18.12;74.96;102234.63;5023105;28;20037;-58
2022/07/16 05:34:16;;;;;;;5.30;2.40;;;;;;;18.17;75.18;102229.53;5025469;28;20056;-60
2022/07/16 05:36:41;;;;;;;9.90;2.40;;;;;;;18.21;74.85;102232.22;5027685;28;20056;-58
2022/07/16 05:39:06;;;;;;;6.72;2.67;;;;;;;18.33;74.63;102236.78;5017690;28;20041;-62
2022/07/16 05:41:32;;;;;;;6.03;2.38;;;;;;;18.33;73.98;102239.38;5025316;28;20064;-57
2022/07/16 05:43:57;;;;;;;5.68;2.33;;;;;;;18.43;73.24;102246.47;5040127;28;20025;-60
2022/07/16 05:46:23;;;;;;;5.55;2.25;;;;;;;18.45;73.51;102239.59;5026905;28;20110;-47
2022/07/16 05:48:49;;;;;;;7.82;2.38;;;;;;;18.48;73.04;102234.41;5019466;28;20116;-59
2022/07/16 05:51:14;;;;;;;3.72;1.83;;;;;;;18.57;72.56;102245.88;5022854;28;20112;-59
2022/07/16 05:53:39;;;;;;;5.53;1.90;;;;;;;18.57;72.20;102244.13;5026374;28;20033;-58
2022/07/16 05:56:05;;;;;;;6.60;2.35;;;;;;;18.54;71.92;102243.19;5022371;28;20120;-60
2022/07/16 05:58:30;;;;;;;5.45;2.53;;;;;;;18.56;71.65;102251.91;5023837;28;20065;-58
2022/07/16 06:00:56;;;;;;;3.60;2.03;;;;;;;18.59;71.48;102252.84;5027232;28;20044;-50
2022/07/16 06:03:21;;;;;;;4.65;1.73;;;;;;;18.62;71.38;102252.00;5022371;28;20120;-56
2022/07/16 06:05:46;;;;;;;5.82;1.88;;;;;;;18.66;71.80;102259.03;5022473;28;20026;-60
2022/07/16 06:08:12;;;;;;;4.72;1.50;;;;;;;18.77;71.42;102256.66;5022347;28;20085;-60
2022/07/16 06:10:37;;;;;;;4.22;1.50;;;;;;;18.78;70.90;102261.88;5021043;28;20034;-58
2022/07/16 06:13:02;;;;;;;5.75;1.38;;;;;;;18.88;70.30;102268.13;5023042;28;20084;-60
2022/07/16 06:15:28;;;;;;;4.30;1.40;;;;;;;18.97;70.27;102274.34;5026528;28;20149;-60
2022/07/16 06:17:53;;;;;;;3.45;1.38;;;;;;;19.07;70.04;102267.56;5030158;28;20469;-58
2022/07/16 06:20:19;;;;;;;5.68;1.83;;;;;;;19.12;69.96;102275.47;5031944;28;20088;-60
2022/07/16 06:22:44;;;;;;;3.40;1.15;;;;;;;19.20;69.03;102272.09;5025538;28;20033;-60
2022/07/16 06:25:09;;;;;;;5.07;1.45;;;;;;;19.22;68.42;102274.72;5027208;28;20049;-60
2022/07/16 06:27:40;;;;;;;2.05;1.20;;;;;;;19.30;68.12;102275.72;5027322;28;20033;-60
2022/07/16 06:30:06;;;;;;;4.82;1.27;;;;;;;19.33;67.06;102275.75;5027831;28;20485;-60
2022/07/16 06:32:32;;;;;;;4.47;1.30;;;;;;;19.43;66.78;102277.66;5022990;28;20026;-60
2022/07/16 06:34:57;;;;;;;4.28;1.48;;;;;;;19.46;66.54;102289.84;5026967;28;20076;-59
2022/07/16 06:37:23;;;;;;;3.30;1.20;;;;;;;19.53;66.03;102283.84;5025296;28;20040;-56
2022/07/16 06:39:48;;;;;;;6.13;2.03;;;;;;;19.67;65.39;102292.81;5022901;28;20061;-52
2022/07/16 06:42:13;;;;;;;3.70;1.27;;;;;;;19.57;63.70;102296.09;5024353;28;20988;-60
2022/07/16 06:44:40;;;;;;;2.53;0.90;;;;;;;19.66;63.63;102298.88;5028622;28;20093;-49
2022/07/16 06:47:06;;;;;;;4.32;1.27;;;;;;;19.67;63.83;102302.38;5027622;28;20021;-60
2022/07/16 06:49:31;;;;;;;4.72;1.20;;;;;;;19.72;62.36;102301.56;5025411;28;20080;-57
2022/07/16 06:51:57;;;;;;;5.07;1.83;;;;;;;19.71;61.47;102306.75;5023412;28;20042;-59
2022/07/16 06:54:22;;;;;;;3.88;1.10;;;;;;;19.77;61.32;102309.44;5025157;28;20047;-58
2022/07/16 06:56:48;;;;;;;3.20;1.08;;;;;;;19.77;62.77;102310.31;5028447;28;20037;-59
2022/07/16 06:59:13;;;;;;;5.80;1.08;;;;;;;19.79;62.51;102318.19;5029710;28;20398;-53
2022/07/16 07:01:38;;;;;;;3.47;1.10;;;;;;;19.82;61.98;102319.09;5022868;28;20080;-61
2022/07/16 07:04:04;;;;;;;2.38;0.90;;;;;;;19.95;60.90;102324.47;5024486;28;20029;-54
2022/07/16 07:06:30;;;;;;;3.65;1.10;;;;;;;20.07;59.81;102324.63;5023777;28;20033;-60
2022/07/16 07:08:55;;;;;;;3.53;1.42;;;;;;;20.12;59.64;102327.28;5022900;28;20033;-53
2022/07/16 07:11:20;;;;;;;3.15;0.93;;;;;;;20.16;58.04;102336.94;5027069;28;20090;-61
2022/07/16 07:13:46;;;;;;;2.30;0.80;;;;;;;20.06;55.82;102342.03;5023368;28;20033;-60
2022/07/16 07:16:11;;;;;;;3.25;0.98;;;;;;;20.08;56.36;102352.47;5028573;28;20059;-58
2022/07/16 07:18:36;;;;;;;3.33;1.00;;;;;;;20.05;55.95;102353.31;5021752;28;20038;-60
2022/07/16 07:21:03;;;;;;;4.18;1.10;;;;;;;20.13;56.79;102358.63;5028478;28;20064;-62
2022/07/16 07:23:29;;;;;;;3.33;1.05;;;;;;;20.24;56.79;102354.44;5023746;28;20036;-60
2022/07/16 07:25:55;;;;;;;1.75;1.00;;;;;;;20.31;56.53;102365.81;5018995;28;20513;-60
2022/07/16 07:28:21;;;;;;;3.22;1.10;;;;;;;20.35;55.25;102355.44;5019078;28;20042;-59
2022/07/16 07:30:46;;;;;;;3.55;1.00;;;;;;;20.43;55.19;102362.47;5006205;28;20037;-60
2022/07/16 07:33:13;;;;;;;3.83;0.90;;;;;;;20.43;54.89;102359.84;5020198;28;20033;-60
2022/07/16 07:35:39;;;;;;;3.67;1.10;;;;;;;20.39;55.38;102371.16;5015947;28;20057;-59
2022/07/16 07:38:05;;;;;;;2.90;1.20;;;;;;;20.45;55.69;102363.38;5020054;28;20114;-59
2022/07/16 07:40:30;;;;;;;5.03;1.33;;;;;;;20.45;55.93;102359.06;5019427;28;20542;-59
2022/07/16 07:42:56;;;;;;;2.40;1.10;;;;;;;20.52;55.39;102366.09;5022083;28;20044;-56
2022/07/16 07:45:21;;;;;;;3.17;1.20;;;;;;;20.52;55.53;102370.47;5022550;28;20478;-53
2022/07/16 07:47:47;;;;;;;3.35;1.00;;;;;;;20.48;54.60;102361.69;5025270;28;20037;-60
2022/07/16 07:50:13;;;;;;;3.28;0.95;;;;;;;20.54;54.52;102377.44;5021263;28;20041;-61
2022/07/16 07:52:39;;;;;;;3.38;0.93;;;;;;;20.55;54.30;102373.97;5021851;28;20026;-60
2022/07/16 07:55:05;;;;;;;2.97;0.90;;;;;;;20.58;54.19;102373.13;5019511;28;20753;-61
2022/07/16 07:57:31;;;;;;;3.28;0.98;;;;;;;20.63;54.24;102381.91;5021933;28;20528;-48
2022/07/16 07:59:56;;;;;;;3.83;1.10;;;;;;;20.60;53.72;102377.50;5015593;28;20041;-59
2022/07/16 08:02:21;;;;;;;4.85;1.20;;;;;;;20.66;55.26;102378.44;5023728;28;20389;-56
2022/07/16 08:04:47;;;;;;;5.00;1.30;;;;;;;20.76;54.06;102383.78;5019189;28;20049;-53
2022/07/16 08:07:12;;;;;;;5.68;1.10;;;;;;;20.80;53.52;102382.94;5022596;28;20066;-61
2022/07/16 08:09:38;;;;;;;4.95;1.30;;;;;;;20.86;53.10;102382.13;5022493;28;20032;-60
2022/07/16 08:12:03;;;;;;;3.30;1.30;;;;;;;20.89;53.22;102385.66;5018461;28;20026;-52
2022/07/16 08:14:29;;;;;;;3.92;1.10;;;;;;;20.92;52.54;102383.91;5022579;28;20148;-58
2022/07/16 08:16:58;;;;;;;2.00;1.00;;;;;;;20.99;52.70;102388.34;5022563;28;20115;-48
2022/07/16 08:19:24;;;;;;;4.78;1.15;;;;;;;20.94;51.98;102390.06;5022501;28;20581;-58
2022/07/16 08:21:50;;;;;;;5.10;1.20;;;;;;;21.03;52.00;102392.75;5026446;28;20056;-60
2022/07/16 08:27:00;;;;;;;5.15;1.10;;;;;;;21.12;51.45;102396.34;5022542;28;20029;-60
2022/07/16 08:29:26;;;;;;;5.88;1.10;;;;;;;21.11;51.47;102405.03;5019032;28;20038;-60
2022/07/16 08:31:51;;;;;;;3.45;1.20;;;;;;;21.20;50.79;102414.69;5023893;28;20116;-60
2022/07/16 08:34:16;;;;;;;2.50;1.10;;;;;;;21.18;49.51;102413.81;5014051;28;20050;-60
2022/07/16 08:36:42;;;;;;;2.63;1.20;;;;;;;21.31;48.94;102417.44;5047197;28;20538;-59
2022/07/16 08:39:07;;;;;;;3.42;1.10;;;;;;;21.34;47.76;102407.88;5026724;28;20033;-57
2022/07/16 08:41:34;;;;;;;2.92;0.88;;;;;;;21.34;47.98;102413.09;5028836;28;20033;-59
2022/07/16 08:44:00;;;;;;;3.92;1.15;;;;;;;21.47;48.88;102418.44;5020669;28;20024;-59
2022/07/16 08:46:26;;;;;;;4.70;1.20;;;;;;;21.51;49.49;102426.31;5023994;28;20030;-59
2022/07/16 08:48:52;;;;;;;5.32;1.13;;;;;;;21.61;48.75;102432.50;5025173;28;20381;-55
2022/07/16 08:51:30;;;;;;;4.85;1.10;;;;;;;21.62;48.82;102434.25;5022563;28;20037;-60
2022/07/16 08:54:01;;;;;;;2.50;1.00;;;;;;;21.54;49.06;102421.13;5021980;28;20025;-61
2022/07/16 08:56:27;;;;;;;3.47;1.10;;;;;;;21.55;49.40;102448.16;5023264;28;20488;-60
2022/07/16 08:58:53;;;;;;;3.22;1.05;;;;;;;21.45;47.85;102435.88;5026887;28;20026;-58
2022/07/16 09:01:18;;;;;;;4.07;1.17;;;;;;;21.48;49.43;102442.00;5020519;28;20176;-60
2022/07/16 09:03:43;;;;;;;3.17;0.88;;;;;;;21.38;49.38;102440.19;5016877;28;20040;-60
2022/07/16 09:06:09;;;;;;;2.85;1.00;;;;;;;21.51;49.64;102441.16;5024085;28;20032;-60
2022/07/16 09:08:34;;;;;;;3.45;1.10;;;;;;;21.57;49.84;102438.59;5022892;28;20534;-60
2022/07/16 09:11:17;;;;;;;3.50;0.90;;;;;;;21.70;50.33;102443.03;5040880;28;20037;-48
2022/07/16 09:14:18;;;;;;;3.75;1.08;;;;;;;21.82;49.80;102447.47;5014650;28;20014;-56
2022/07/16 09:16:47;;;;;;;3.97;0.90;;;;;;;21.86;48.19;102444.91;5025905;28;20136;-60
2022/07/16 09:19:15;;;;;;;4.15;1.15;;;;;;;21.93;48.13;102454.53;5022326;28;20054;-60
2022/07/16 09:22:03;;;;;;;4.57;1.08;;;;;;;21.96;47.54;102453.66;5021400;28;20036;-57
2022/07/16 09:24:34;;;;;;;1.23;0.80;;;;;;;21.94;46.87;102439.69;5015533;28;20026;-60
2022/07/16 09:27:01;;;;;;;4.85;1.10;;;;;;;22.04;46.39;102448.50;5017544;28;20058;-61
2022/07/16 09:29:27;;;;;;;3.90;1.00;;;;;;;22.05;46.27;102455.50;5023551;28;20036;-60
2022/07/16 09:31:54;;;;;;;4.90;1.08;;;;;;;22.13;47.12;102459.94;5023184;28;20029;-61
2022/07/16 09:34:20;;;;;;;3.97;0.90;;;;;;;22.15;46.88;102459.97;5025334;28;20073;-60
2022/07/16 09:37:01;;;;;;;3.58;0.90;;;;;;;22.31;48.33;102453.03;5025311;28;20033;-60
2022/07/16 09:39:27;;;;;;;5.82;1.02;;;;;;;22.30;46.80;102451.28;5026225;28;20029;-57
2022/07/16 09:41:53;;;;;;;1.95;1.00;;;;;;;22.19;45.86;102453.84;5020486;28;20034;-58
2022/07/16 09:44:28;;;;;;;2.95;0.80;;;;;;;22.13;46.03;102461.66;5016732;28;20029;-59
2022/07/16 09:47:08;;;;;;;3.35;1.00;;;;;;;22.01;46.17;102457.19;5024063;28;20032;-61
2022/07/16 09:49:36;;;;;;;3.83;0.90;;;;;;;21.96;45.79;102458.91;5019022;28;20025;-60
2022/07/16 09:52:06;;;;;;;2.80;1.00;;;;;;;21.94;45.22;102479.84;5016647;28;20064;-60
2022/07/16 09:54:35;;;;;;;4.35;1.05;;;;;;;21.98;44.52;102474.66;5021060;28;20146;-60
2022/07/16 09:57:18;;;;;;;2.67;0.98;;;;;;;22.10;44.05;102464.28;5023093;28;20405;-57
2022/07/16 09:59:45;;;;;;;2.17;0.82;;;;;;;22.20;44.29;102472.22;5024070;28;20052;-61
2022/07/16 10:02:12;;;;;;;2.78;1.05;;;;;;;22.28;44.94;102482.72;5020623;28;20607;-60
2022/07/16 10:04:37;;;;;;;3.13;1.10;;;;;;;22.38;44.09;102479.25;5022114;28;20698;-59
2022/07/16 10:07:03;;;;;;;5.13;1.00;;;;;;;22.47;44.03;102473.22;5017054;28;20037;-60
2022/07/16 10:09:29;;;;;;;3.10;1.00;;;;;;;22.43;44.48;102477.53;5017403;28;20029;-60
2022/07/16 10:11:57;;;;;;;2.67;0.95;;;;;;;22.40;44.56;102476.69;5020581;28;20034;-51
2022/07/16 10:14:24;;;;;;;3.17;1.00;;;;;;;22.46;44.22;102474.09;5020858;28;20038;-60
2022/07/16 10:16:50;;;;;;;4.50;0.88;;;;;;;22.50;43.40;102486.31;5020611;28;20037;-58
2022/07/16 10:19:15;;;;;;;2.85;0.80;;;;;;;22.34;42.06;102477.53;5018807;28;20413;-50
2022/07/16 10:22:22;;;;;;;3.30;1.05;;;;;;;22.45;43.58;102477.56;5019034;28;20429;-59
2022/07/16 10:24:53;;;;;;;2.70;0.70;;;;;;;22.35;43.45;102488.88;5011913;28;20045;-58
2022/07/16 10:27:21;;;;;;;2.42;0.85;;;;;;;22.25;42.65;102498.41;5017342;28;20029;-53
2022/07/16 10:29:46;;;;;;;1.95;0.88;;;;;;;22.25;42.72;102487.06;5016326;28;20033;-57
2022/07/16 10:32:27;;;;;;;4.20;1.00;;;;;;;22.21;41.94;102491.44;5011152;28;20076;-57
2022/07/16 10:34:55;;;;;;;3.28;1.00;;;;;;;22.36;42.42;102501.09;5014134;28;20087;-57
2022/07/16 10:37:27;;;;;;;3.50;1.00;;;;;;;22.39;41.59;102504.63;5016857;28;20502;-57
2022/07/16 10:40:10;;;;;;;3.47;1.00;;;;;;;22.42;41.96;102493.28;5020889;28;20482;-59
2022/07/16 10:42:36;;;;;;;3.95;0.98;;;;;;;22.44;41.45;102500.25;5018631;28;20483;-59
2022/07/16 10:45:02;;;;;;;2.28;0.90;;;;;;;22.54;42.36;102495.06;5018836;28;20032;-51
2022/07/16 10:47:42;;;;;;;4.10;1.20;;;;;;;22.57;42.51;102497.69;5017133;28;20090;-59
2022/07/16 10:50:22;;;;;;;2.45;0.80;;;;;;;22.53;42.69;102496.81;5022691;28;20021;-59
2022/07/16 10:52:50;;;;;;;2.05;0.93;;;;;;;22.44;42.29;102504.63;5014399;28;20025;-55
2022/07/16 10:55:33;;;;;;;1.67;0.95;;;;;;;22.55;43.46;102510.81;5014131;28;20029;-59
2022/07/16 10:58:00;;;;;;;4.68;1.10;;;;;;;22.58;41.95;102510.84;5020707;28;20491;-59
2022/07/16 11:00:26;;;;;;;4.30;1.17;;;;;;;22.52;41.53;102508.19;5018862;28;20037;-59
2022/07/16 11:02:57;;;;;;;4.60;1.10;;;;;;;22.62;42.29;102509.97;5022299;28;20040;-59
2022/07/16 11:05:25;;;;;;;2.88;1.20;;;;;;;22.66;42.21;102513.47;5022444;28;20026;-58
2022/07/16 11:07:50;;;;;;;4.47;1.05;;;;;;;22.69;41.15;102503.00;5023173;28;20033;-60
2022/07/16 11:10:15;;;;;;;3.50;0.80;;;;;;;22.78;41.62;102521.41;5025080;28;20584;-59
2022/07/16 11:12:41;;;;;;;2.03;0.90;;;;;;;22.79;40.89;102509.16;5024738;28;20037;-59
2022/07/16 11:15:06;;;;;;;4.95;1.20;;;;;;;22.73;41.52;102520.50;5023156;28;20065;-59
2022/07/16 11:17:33;;;;;;;3.85;0.77;;;;;;;22.67;41.30;102507.38;5022298;28;20608;-47
2022/07/16 11:20:00;;;;;;;5.22;1.25;;;;;;;22.58;41.37;102502.97;5021491;28;20045;-57
2022/07/16 11:22:28;;;;;;;5.75;1.20;;;;;;;22.64;41.60;102513.47;5026682;28;20056;-60
2022/07/16 11:24:59;;;;;;;2.90;1.00;;;;;;;22.78;42.45;102510.91;5021340;28;20068;-59
2022/07/16 11:27:29;;;;;;;1.70;0.88;;;;;;;22.65;41.41;102519.59;5024636;28;20044;-60
2022/07/16 11:29:56;;;;;;;3.97;0.93;;;;;;;22.51;41.15;102513.41;5019764;28;20755;-50